createdAt,value
2018-08-16T00:00:38.644Z,4.90
2018-08-16T00:03:07.782Z,4.37
2018-08-16T00:05:36.172Z,4.60
2018-08-16T00:08:04.614Z,5.40
2018-08-16T00:10:33.014Z,5.30
2018-08-16T00:13:01.370Z,4.47
2018-08-16T00:15:29.792Z,4.53
2018-08-16T00:17:58.182Z,4.43
2018-08-16T00:20:26.547Z,5.23
2018-08-16T00:22:54.851Z,4.90
2018-08-16T00:25:23.250Z,5.50
2018-08-16T00:27:51.693Z,4.80
2018-08-16T00:30:20.436Z,5.87
2018-08-16T00:32:49.013Z,5.70
2018-08-16T00:35:17.407Z,5.30
2018-08-16T00:37:45.815Z,4.50
2018-08-16T00:40:15.470Z,5.00
2018-08-16T00:42:43.823Z,4.63
2018-08-16T00:45:12.747Z,4.67
2018-08-16T00:47:41.242Z,4.73
2018-08-16T00:50:11.151Z,5.30
2018-08-16T00:52:39.547Z,5.03
2018-08-16T00:55:08.927Z,5.57
2018-08-16T00:57:37.667Z,4.93
2018-08-16T01:00:07.355Z,5.40
2018-08-16T01:02:35.773Z,4.83
2018-08-16T01:05:04.483Z,5.17
2018-08-16T01:07:32.824Z,4.63
2018-08-16T01:10:01.199Z,5.97
2018-08-16T01:12:29.611Z,5.20
2018-08-16T01:14:58.068Z,4.97
2018-08-16T01:17:26.438Z,6.97
2018-08-16T01:19:54.849Z,6.00
2018-08-16T01:22:23.221Z,6.50
2018-08-16T01:24:51.640Z,6.07
2018-08-16T01:27:20.183Z,6.10
2018-08-16T01:29:48.580Z,6.07
2018-08-16T01:32:16.990Z,6.13
2018-08-16T01:34:45.344Z,5.70
2018-08-16T01:37:13.734Z,6.33
2018-08-16T01:39:42.072Z,5.53
2018-08-16T01:42:10.470Z,5.97
2018-08-16T01:44:38.847Z,5.57
2018-08-16T01:47:07.227Z,6.30
2018-08-16T01:49:36.795Z,6.60
2018-08-16T01:52:05.300Z,6.80
2018-08-16T01:54:33.898Z,6.90
2018-08-16T01:57:03.116Z,5.90
2018-08-16T01:59:31.504Z,7.30
2018-08-16T02:01:59.924Z,7.80
2018-08-16T02:04:28.300Z,7.37
2018-08-16T02:06:56.693Z,6.43
2018-08-16T02:09:25.084Z,7.17
2018-08-16T02:11:53.788Z,6.27
2018-08-16T02:14:22.384Z,7.70
2018-08-16T02:16:51.273Z,9.40
2018-08-16T02:19:19.833Z,7.50
2018-08-16T02:21:48.215Z,9.37
2018-08-16T02:24:16.586Z,8.97
2018-08-16T02:26:44.979Z,7.93
2018-08-16T02:29:13.427Z,9.57
2018-08-16T02:31:41.831Z,9.97
2018-08-16T02:34:10.199Z,9.27
2018-08-16T02:36:38.591Z,10.03
2018-08-16T02:39:09.829Z,9.37
2018-08-16T02:41:38.847Z,9.30
2018-08-16T02:44:07.727Z,7.60
2018-08-16T02:46:36.133Z,7.57
2018-08-16T02:49:04.533Z,8.47
2018-08-16T02:51:32.947Z,8.73
2018-08-16T02:54:01.344Z,8.30
2018-08-16T02:56:29.798Z,9.17
2018-08-16T02:58:58.439Z,9.07
2018-08-16T03:01:26.860Z,8.63
2018-08-16T03:03:55.211Z,8.70
2018-08-16T03:06:23.566Z,7.93
2018-08-16T03:08:51.987Z,8.27
2018-08-16T03:11:20.328Z,8.00
2018-08-16T03:13:48.719Z,7.60
2018-08-16T03:16:17.063Z,8.40
2018-08-16T03:18:45.491Z,8.50
2018-08-16T03:21:13.843Z,8.17
2018-08-16T03:23:42.204Z,7.70
2018-08-16T03:26:10.599Z,8.03
2018-08-16T03:28:38.979Z,7.90
2018-08-16T03:31:07.316Z,6.90
2018-08-16T03:33:35.671Z,8.10
2018-08-16T03:36:04.137Z,6.70
2018-08-16T03:38:32.482Z,8.27
2018-08-16T03:41:00.904Z,7.63
2018-08-16T03:43:29.272Z,7.17
2018-08-16T03:45:57.650Z,7.27
2018-08-16T03:48:25.976Z,7.63
2018-08-16T03:50:54.355Z,8.07
2018-08-16T03:53:22.774Z,8.13
2018-08-16T03:55:51.149Z,7.00
2018-08-16T03:58:19.535Z,9.50
2018-08-16T04:00:47.978Z,9.80
2018-08-16T04:03:16.320Z,8.33
2018-08-16T04:05:44.648Z,8.07
2018-08-16T04:08:13.053Z,7.67
2018-08-16T04:10:41.427Z,7.70
2018-08-16T04:13:09.743Z,6.80
2018-08-16T04:15:38.105Z,7.00
2018-08-16T04:18:06.437Z,6.90
2018-08-16T04:20:34.786Z,7.30
2018-08-16T04:23:03.167Z,6.90
2018-08-16T04:25:31.529Z,18.00
2018-08-16T04:28:00.139Z,8.50
2018-08-16T04:30:29.356Z,7.33
2018-08-16T04:32:57.700Z,7.60
2018-08-16T04:35:26.115Z,7.37
2018-08-16T04:37:54.467Z,7.63
2018-08-16T04:40:22.803Z,7.30
2018-08-16T04:42:51.372Z,7.40
2018-08-16T04:45:19.786Z,8.13
2018-08-16T04:47:48.119Z,7.93
2018-08-16T04:50:16.513Z,8.40
2018-08-16T04:52:44.904Z,7.10
2018-08-16T04:55:13.259Z,7.67
2018-08-16T04:57:41.649Z,7.60
2018-08-16T05:00:12.008Z,7.70
2018-08-16T05:02:40.420Z,8.47
2018-08-16T05:05:09.329Z,19.37
2018-08-16T05:07:38.007Z,8.63
2018-08-16T05:10:07.674Z,8.50
2018-08-16T05:12:36.060Z,8.30
2018-08-16T05:15:06.866Z,7.53
2018-08-16T05:17:35.223Z,7.60
2018-08-16T05:20:04.628Z,7.43
2018-08-16T05:22:33.011Z,7.73
2018-08-16T05:25:01.421Z,7.63
2018-08-16T05:27:29.839Z,7.77
2018-08-16T05:29:58.169Z,8.67
2018-08-16T05:32:26.592Z,8.13
2018-08-16T05:34:54.980Z,7.70
2018-08-16T05:37:23.655Z,7.20
2018-08-16T05:39:52.076Z,7.67
2018-08-16T05:42:20.440Z,8.50
2018-08-16T05:44:48.825Z,8.47
2018-08-16T05:47:17.235Z,7.83
2018-08-16T05:49:45.755Z,8.43
2018-08-16T05:52:14.144Z,8.80
2018-08-16T05:54:42.544Z,9.13
2018-08-16T05:57:10.976Z,8.27
2018-08-16T05:59:39.370Z,8.87
2018-08-16T06:02:07.885Z,7.97
2018-08-16T06:04:36.452Z,7.87
2018-08-16T06:07:05.106Z,7.90
2018-08-16T06:09:33.537Z,8.03
2018-08-16T06:12:02.030Z,7.57
2018-08-16T06:14:30.394Z,8.53
2018-08-16T06:16:58.810Z,8.33
2018-08-16T06:19:27.386Z,6.70
2018-08-16T06:21:55.993Z,6.73
2018-08-16T06:24:24.375Z,7.43
2018-08-16T06:26:52.821Z,8.30
2018-08-16T06:29:21.331Z,7.60
2018-08-16T06:31:49.707Z,7.43
2018-08-16T06:34:18.097Z,7.70
2018-08-16T06:36:46.626Z,8.17
2018-08-16T06:39:15.007Z,7.43
2018-08-16T06:41:43.453Z,6.50
2018-08-16T06:44:11.855Z,7.10
2018-08-16T06:46:40.279Z,6.83
2018-08-16T06:49:09.015Z,7.87
2018-08-16T06:51:37.419Z,7.23
2018-08-16T06:54:05.810Z,6.73
2018-08-16T06:56:34.191Z,6.97
2018-08-16T06:59:02.571Z,6.67
2018-08-16T07:01:30.963Z,7.27
2018-08-16T07:03:59.376Z,7.20
2018-08-16T07:06:27.820Z,6.13
2018-08-16T07:08:56.180Z,5.90
2018-08-16T07:11:24.567Z,6.37
2018-08-16T07:13:52.980Z,5.80
2018-08-16T07:16:21.364Z,5.03
2018-08-16T07:18:49.963Z,5.63
2018-08-16T07:21:18.327Z,5.43
2018-08-16T07:23:46.679Z,5.40
2018-08-16T07:26:15.024Z,5.90
2018-08-16T07:28:43.456Z,5.07
2018-08-16T07:31:11.817Z,5.77
2018-08-16T07:33:40.200Z,5.27
2018-08-16T07:36:09.029Z,5.33
2018-08-16T07:38:37.362Z,5.00
2018-08-16T07:41:06.028Z,5.23
2018-08-16T07:43:34.446Z,5.47
2018-08-16T07:46:02.937Z,5.30
2018-08-16T07:48:31.242Z,5.23
2018-08-16T07:50:59.721Z,4.47
2018-08-16T07:53:28.125Z,5.33
2018-08-16T07:55:56.479Z,4.87
2018-08-16T07:58:24.947Z,4.90
2018-08-16T08:00:53.328Z,4.90
2018-08-16T08:03:21.749Z,5.77
2018-08-16T08:05:50.159Z,5.30
2018-08-16T08:08:18.643Z,4.90
2018-08-16T08:10:47.045Z,5.57
2018-08-16T08:13:15.529Z,5.73
2018-08-16T08:15:43.905Z,5.07
2018-08-16T08:18:12.337Z,4.50
2018-08-16T08:20:40.751Z,5.23
2018-08-16T08:23:09.145Z,4.07
2018-08-16T08:25:37.557Z,4.00
2018-08-16T08:28:06.240Z,3.73
2018-08-16T08:30:34.647Z,3.77
2018-08-16T08:33:03.091Z,3.43
2018-08-16T08:35:31.465Z,3.00
2018-08-16T08:38:14.038Z,3.45
2018-08-16T08:40:42.460Z,3.92
2018-08-16T08:43:15.567Z,3.70
2018-08-16T08:45:43.984Z,4.43
2018-08-16T08:48:12.336Z,3.10
2018-08-16T08:50:40.716Z,3.57
2018-08-16T08:53:20.196Z,3.20
2018-08-16T08:55:59.891Z,3.50
2018-08-16T08:58:46.500Z,3.20
2018-08-16T09:01:14.934Z,3.37
2018-08-16T09:03:43.324Z,3.10
2018-08-16T09:06:11.735Z,3.17
2018-08-16T09:08:40.110Z,3.10
2018-08-16T09:11:20.352Z,3.10
2018-08-16T09:14:01.323Z,3.15
2018-08-16T09:16:33.596Z,3.30
2018-08-16T09:19:02.262Z,2.90
2018-08-16T09:21:31.304Z,3.45
2018-08-16T09:23:59.786Z,3.55
2018-08-16T09:26:33.543Z,2.75
2018-08-16T09:29:01.965Z,3.67
2018-08-16T09:31:41.664Z,3.20
2018-08-16T09:34:19.380Z,3.05
2018-08-16T09:36:47.771Z,3.02
2018-08-16T09:39:16.180Z,3.08
2018-08-16T09:41:44.603Z,2.72
2018-08-16T09:44:12.980Z,2.70
2018-08-16T09:47:23.216Z,2.80
2018-08-16T09:49:52.113Z,2.42
2018-08-16T09:52:21.239Z,2.58
2018-08-16T09:54:50.242Z,2.72
2018-08-16T09:57:18.917Z,2.70
2018-08-16T09:59:47.351Z,3.02
2018-08-16T10:02:17.282Z,2.75
2018-08-16T10:04:45.639Z,2.65
2018-08-16T10:07:14.019Z,2.58
2018-08-16T10:09:42.355Z,2.62
2018-08-16T10:12:10.751Z,2.52
2018-08-16T10:14:39.119Z,2.72
2018-08-16T10:17:07.549Z,2.40
2018-08-16T10:19:36.145Z,2.55
2018-08-16T10:22:04.578Z,2.33
2018-08-16T10:24:32.964Z,2.75
2018-08-16T10:27:01.387Z,2.70
2018-08-16T10:29:29.719Z,2.33
2018-08-16T10:31:58.132Z,2.20
2018-08-16T10:34:26.513Z,2.50
2018-08-16T10:36:54.863Z,2.60
2018-08-16T10:39:23.252Z,2.22
2018-08-16T10:41:51.609Z,2.40
2018-08-16T10:44:19.987Z,2.20
2018-08-16T10:46:48.420Z,2.58
2018-08-16T10:49:16.768Z,2.83
2018-08-16T10:51:45.126Z,2.47
2018-08-16T10:54:13.500Z,2.15
2018-08-16T10:56:41.916Z,2.42
2018-08-16T10:59:10.332Z,2.40
2018-08-16T11:01:38.756Z,2.80
2018-08-16T11:04:07.155Z,2.30
2018-08-16T11:06:35.524Z,2.50
2018-08-16T11:09:05.765Z,2.58
2018-08-16T11:11:34.142Z,2.33
2018-08-16T11:14:02.520Z,2.42
2018-08-16T11:16:30.852Z,2.42
2018-08-16T11:18:59.284Z,2.25
2018-08-16T11:21:27.648Z,2.33
2018-08-16T11:23:56.003Z,2.20
2018-08-16T11:26:24.370Z,2.37
2018-08-16T11:28:52.770Z,2.50
2018-08-16T11:31:21.152Z,2.08
2018-08-16T11:33:49.558Z,2.22
2018-08-16T11:36:17.998Z,2.70
2018-08-16T11:38:46.374Z,2.42
2018-08-16T11:41:14.771Z,2.22
2018-08-16T11:43:43.090Z,2.20
2018-08-16T11:46:11.487Z,2.17
2018-08-16T11:48:39.856Z,2.17
2018-08-16T11:51:08.437Z,1.77
2018-08-16T11:53:37.007Z,2.15
2018-08-16T11:56:05.466Z,2.15
2018-08-16T11:58:33.921Z,2.27
2018-08-16T12:01:02.411Z,1.90
2018-08-16T12:03:31.032Z,2.10
2018-08-16T12:05:59.430Z,2.10
2018-08-16T12:08:27.847Z,2.10
2018-08-16T12:10:56.263Z,2.00
2018-08-16T12:13:24.622Z,2.30
2018-08-16T12:15:53.014Z,2.30
2018-08-16T12:18:21.390Z,1.90
2018-08-16T12:20:49.751Z,2.20
2018-08-16T12:23:18.148Z,2.25
2018-08-16T12:25:46.527Z,2.10
2018-08-16T12:28:14.926Z,2.00
2018-08-16T12:30:43.249Z,2.00
2018-08-16T12:33:11.572Z,2.05
2018-08-16T12:35:39.973Z,2.02
2018-08-16T12:38:08.391Z,1.90
2018-08-16T12:40:36.838Z,2.17
2018-08-16T12:43:05.153Z,2.20
2018-08-16T12:45:33.563Z,2.37
2018-08-16T12:48:01.913Z,2.00
2018-08-16T12:50:30.265Z,2.20
2018-08-16T12:52:58.635Z,2.20
2018-08-16T12:55:27.006Z,2.05
2018-08-16T12:57:55.365Z,2.42
2018-08-16T13:00:23.768Z,2.33
2018-08-16T13:02:52.134Z,1.95
2018-08-16T13:05:20.527Z,2.00
2018-08-16T13:07:48.934Z,2.15
2018-08-16T13:10:17.364Z,1.90
2018-08-16T13:12:45.724Z,2.30
2018-08-16T13:15:14.028Z,1.95
2018-08-16T13:17:42.478Z,2.05
2018-08-16T13:20:11.647Z,2.17
2018-08-16T13:22:40.134Z,2.08
2018-08-16T13:25:09.082Z,2.17
2018-08-16T13:27:37.590Z,2.20
2018-08-16T13:30:06.425Z,2.40
2018-08-16T13:32:34.923Z,2.50
2018-08-16T13:35:03.414Z,2.17
2018-08-16T13:37:31.867Z,2.15
2018-08-16T13:40:00.567Z,1.98
2018-08-16T13:42:29.133Z,2.30
2018-08-16T13:44:57.600Z,2.00
2018-08-16T13:47:26.143Z,2.10
2018-08-16T13:49:54.680Z,2.20
2018-08-16T13:52:23.145Z,2.20
2018-08-16T13:54:51.788Z,1.98
2018-08-16T13:57:20.229Z,2.30
2018-08-16T13:59:48.761Z,2.00
2018-08-16T14:02:17.221Z,2.80
2018-08-16T14:04:45.671Z,1.90
2018-08-16T14:07:14.141Z,2.25
2018-08-16T14:09:42.617Z,1.98
2018-08-16T14:12:11.145Z,2.35
2018-08-16T14:14:39.589Z,2.08
2018-08-16T14:17:08.221Z,2.35
2018-08-16T14:19:36.669Z,2.02
2018-08-16T14:22:05.289Z,2.00
2018-08-16T14:24:33.796Z,2.12
2018-08-16T14:27:02.283Z,2.02
2018-08-16T14:29:30.831Z,1.87
2018-08-16T14:32:01.930Z,2.30
2018-08-16T14:34:30.410Z,2.08
2018-08-16T14:36:59.800Z,2.08
2018-08-16T14:39:28.671Z,1.62
2018-08-16T14:41:57.223Z,2.33
2018-08-16T14:44:25.764Z,2.02
2018-08-16T14:46:55.277Z,2.05
2018-08-16T14:49:23.961Z,1.82
2018-08-16T14:51:53.817Z,2.22
2018-08-16T14:54:22.566Z,2.47
2018-08-16T14:56:51.062Z,2.33
2018-08-16T14:59:22.320Z,2.10
2018-08-16T15:01:51.816Z,2.12
2018-08-16T15:04:20.570Z,2.10
2018-08-16T15:06:49.698Z,2.20
2018-08-16T15:09:18.421Z,2.00
2018-08-16T15:11:46.952Z,2.17
2018-08-16T15:14:15.536Z,2.00
2018-08-16T15:16:44.118Z,2.25
2018-08-16T15:19:12.708Z,2.20
2018-08-16T15:21:41.216Z,2.17
2018-08-16T15:24:10.259Z,2.90
2018-08-16T15:26:39.072Z,2.00
2018-08-16T15:29:07.634Z,2.00
2018-08-16T15:31:40.155Z,1.67
2018-08-16T15:34:10.428Z,2.12
2018-08-16T15:36:39.088Z,2.22
2018-08-16T15:39:10.491Z,2.90
2018-08-16T15:41:39.492Z,2.15
2018-08-16T15:44:10.176Z,2.30
2018-08-16T15:46:38.940Z,1.98
2018-08-16T15:49:08.081Z,2.20
2018-08-16T15:51:36.956Z,2.37
2018-08-16T15:54:06.016Z,2.07
2018-08-16T15:56:35.464Z,2.23
2018-08-16T15:59:05.103Z,2.30
2018-08-16T16:01:33.679Z,1.80
2018-08-16T16:04:02.274Z,1.97
2018-08-16T16:06:31.048Z,2.10
2018-08-16T16:09:00.101Z,2.10
2018-08-16T16:11:28.709Z,2.30
2018-08-16T16:13:57.231Z,2.27
2018-08-16T16:16:26.711Z,2.10
2018-08-16T16:18:55.263Z,1.90
2018-08-16T16:21:23.812Z,2.63
2018-08-16T16:23:54.759Z,2.30
2018-08-16T16:26:23.496Z,2.33
2018-08-16T16:28:54.157Z,1.93
2018-08-16T16:31:24.363Z,2.70
2018-08-16T16:33:54.085Z,1.87
2018-08-16T16:36:22.812Z,2.33
2018-08-16T16:38:51.453Z,2.20
2018-08-16T16:41:21.071Z,2.20
2018-08-16T16:43:51.467Z,1.70
2018-08-16T16:46:20.903Z,2.00
2018-08-16T16:48:51.827Z,2.00
2018-08-16T16:51:25.118Z,1.83
2018-08-16T16:53:54.597Z,2.00
2018-08-16T16:56:23.649Z,2.10
2018-08-16T16:58:52.773Z,2.23
2018-08-16T17:01:22.083Z,1.93
2018-08-16T17:03:52.437Z,1.80
2018-08-16T17:06:21.434Z,1.93
2018-08-16T17:08:50.289Z,1.97
2018-08-16T17:11:18.917Z,1.90
2018-08-16T17:13:47.421Z,1.73
2018-08-16T17:16:16.905Z,1.97
2018-08-16T17:18:46.600Z,1.50
2018-08-16T17:21:15.301Z,1.60
2018-08-16T17:23:44.431Z,2.10
2018-08-16T17:26:13.121Z,1.90
2018-08-16T17:28:43.664Z,1.90
2018-08-16T17:31:12.180Z,1.90
2018-08-16T17:33:40.649Z,1.83
2018-08-16T17:36:09.294Z,1.77
2018-08-16T17:38:41.024Z,2.10
2018-08-16T17:41:10.767Z,2.13
2018-08-16T17:43:40.445Z,2.10
2018-08-16T17:46:10.728Z,2.10
2018-08-16T17:48:39.527Z,2.20
2018-08-16T17:51:09.070Z,1.73
2018-08-16T17:53:39.045Z,2.10
2018-08-16T17:56:07.695Z,1.73
2018-08-16T17:58:36.425Z,1.87
2018-08-16T18:01:07.083Z,1.80
2018-08-16T18:03:36.436Z,2.30
2018-08-16T18:06:05.939Z,2.10
2018-08-16T18:08:35.419Z,2.00
2018-08-16T18:11:04.592Z,1.90
2018-08-16T18:13:35.727Z,2.07
2018-08-16T18:16:05.441Z,2.00
2018-08-16T18:18:34.119Z,2.30
2018-08-16T18:21:03.239Z,2.10
2018-08-16T18:23:32.149Z,2.60
2018-08-16T18:26:01.022Z,2.23
2018-08-16T18:28:29.506Z,1.90
2018-08-16T18:30:58.803Z,2.30
2018-08-16T18:33:27.389Z,2.40
2018-08-16T18:35:57.147Z,2.50
2018-08-16T18:38:25.703Z,2.60
2018-08-16T18:40:54.267Z,2.73
2018-08-16T18:43:22.838Z,2.40
2018-08-16T18:45:51.355Z,2.80
2018-08-16T18:48:24.465Z,2.50
2018-08-16T18:50:52.995Z,2.47
2018-08-16T18:53:22.897Z,2.53
2018-08-16T18:55:51.444Z,2.40
2018-08-16T18:58:19.953Z,2.40
2018-08-16T19:00:49.145Z,2.67
2018-08-16T19:03:18.403Z,2.53
2018-08-16T19:05:47.806Z,2.70
2018-08-16T19:08:17.110Z,2.27
2018-08-16T19:10:46.642Z,2.70
2018-08-16T19:13:16.148Z,2.77
2018-08-16T19:15:45.836Z,2.60
2018-08-16T19:18:14.391Z,2.67
2018-08-16T19:20:43.561Z,2.63
2018-08-16T19:23:13.076Z,2.40
2018-08-16T19:25:42.606Z,2.73
2018-08-16T19:28:11.060Z,2.60
2018-08-16T19:30:40.602Z,2.43
2018-08-16T19:33:09.244Z,2.50
2018-08-16T19:35:37.910Z,2.80
2018-08-16T19:38:06.683Z,2.80
2018-08-16T19:40:36.219Z,2.50
2018-08-16T19:43:05.696Z,2.97
2018-08-16T19:45:38.602Z,3.03
2018-08-16T19:48:08.623Z,3.30
2018-08-16T19:50:37.645Z,3.40
2018-08-16T19:53:06.728Z,2.77
2018-08-16T19:55:36.076Z,3.30
2018-08-16T19:58:05.789Z,2.87
2018-08-16T20:00:35.044Z,2.70
2018-08-16T20:03:05.099Z,3.40
2018-08-16T20:05:34.403Z,3.00
2018-08-16T20:08:04.308Z,2.80
2018-08-16T20:10:33.150Z,2.77
2018-08-16T20:13:03.018Z,3.37
2018-08-16T20:15:31.554Z,3.17
2018-08-16T20:17:59.989Z,2.80
2018-08-16T20:20:28.386Z,3.00
2018-08-16T20:22:56.805Z,2.93
2018-08-16T20:25:26.870Z,2.80
2018-08-16T20:27:55.364Z,2.47
2018-08-16T20:30:23.901Z,2.80
2018-08-16T20:32:55.193Z,2.67
2018-08-16T20:35:23.734Z,2.67
2018-08-16T20:37:52.135Z,3.20
2018-08-16T20:40:20.583Z,2.70
2018-08-16T20:42:50.218Z,2.97
2018-08-16T20:45:18.747Z,10.37
2018-08-16T20:47:47.172Z,3.00
2018-08-16T20:50:15.561Z,2.60
2018-08-16T20:52:44.796Z,2.40
2018-08-16T20:55:13.755Z,3.03
2018-08-16T20:57:42.168Z,2.80
2018-08-16T21:00:11.334Z,2.70
2018-08-16T21:02:39.751Z,2.70
2018-08-16T21:05:09.195Z,2.60
2018-08-16T21:07:37.693Z,2.40
2018-08-16T21:10:08.109Z,3.10
2018-08-16T21:12:36.483Z,2.30
2018-08-16T21:15:06.351Z,2.37
2018-08-16T21:17:35.299Z,2.63
2018-08-16T21:20:03.815Z,2.57
2018-08-16T21:22:32.186Z,3.20
2018-08-16T21:25:00.595Z,2.90
2018-08-16T21:27:28.959Z,2.90
2018-08-16T21:29:57.340Z,2.70
2018-08-16T21:32:25.716Z,3.00
2018-08-16T21:34:54.045Z,2.57
2018-08-16T21:37:22.593Z,3.00
2018-08-16T21:39:50.942Z,2.80
2018-08-16T21:42:19.316Z,2.97
2018-08-16T21:44:47.738Z,3.20
2018-08-16T21:47:16.136Z,3.03
2018-08-16T21:49:44.492Z,2.80
2018-08-16T21:52:12.979Z,3.30
2018-08-16T21:54:41.273Z,3.07
2018-08-16T21:57:09.668Z,2.50
2018-08-16T21:59:38.070Z,2.73
2018-08-16T22:02:06.466Z,2.70
2018-08-16T22:04:34.880Z,2.87
2018-08-16T22:07:09.758Z,2.70
2018-08-16T22:09:38.147Z,2.70
2018-08-16T22:12:06.530Z,2.90
2018-08-16T22:14:35.028Z,2.60
2018-08-16T22:17:03.510Z,2.87
2018-08-16T22:19:31.891Z,3.20
2018-08-16T22:22:00.285Z,2.70
2018-08-16T22:24:28.687Z,2.73
2018-08-16T22:26:57.243Z,2.60
2018-08-16T22:29:25.674Z,2.60
2018-08-16T22:31:54.079Z,2.87
2018-08-16T22:34:22.429Z,2.30
2018-08-16T22:36:50.818Z,2.60
2018-08-16T22:39:19.208Z,2.70
2018-08-16T22:41:47.747Z,2.70
2018-08-16T22:44:16.110Z,2.60
2018-08-16T22:46:44.559Z,2.53
2018-08-16T22:49:12.965Z,2.60
2018-08-16T22:51:41.356Z,2.33
2018-08-16T22:54:09.751Z,2.50
2018-08-16T22:56:38.123Z,2.60
2018-08-16T22:59:06.548Z,2.30
2018-08-16T23:01:34.917Z,2.67
2018-08-16T23:04:03.291Z,2.83
2018-08-16T23:06:31.684Z,2.50
2018-08-16T23:09:00.119Z,2.30
2018-08-16T23:11:28.505Z,2.70
2018-08-16T23:13:56.877Z,2.87
2018-08-16T23:16:25.301Z,2.50
2018-08-16T23:18:53.747Z,2.63
2018-08-16T23:21:22.164Z,2.30
2018-08-16T23:23:50.559Z,2.60
2018-08-16T23:26:19.218Z,2.40
2018-08-16T23:28:47.575Z,2.73
2018-08-16T23:31:15.978Z,2.77
2018-08-16T23:33:44.402Z,2.77
2018-08-16T23:36:12.774Z,2.70
2018-08-16T23:38:41.199Z,2.63
2018-08-16T23:41:09.555Z,2.77
2018-08-16T23:43:37.989Z,2.50
2018-08-16T23:46:06.424Z,3.27
2018-08-16T23:48:34.856Z,2.77
2018-08-16T23:51:03.284Z,2.37
2018-08-16T23:53:31.625Z,2.63
2018-08-16T23:56:00.022Z,2.90
2018-08-16T23:58:28.418Z,2.60
